Time;durP1;ratioP1;P1;durP2;ratioP2;P2;SDS_P1;SDS_P2;PMS_P1;PMS_P2;Temp;Humidity;BMP_temperature;BMP_pressure;BME280_temperature;BME280_humidity;BME280_pressure;Samples;Min_cycle;Max_cycle;Signal;HPM_P1;HPM_P2
2023/04/18 00:00:09;;;;;;;;;;;8.80;99.90;;;;;;5089833;28;19920;-74
2023/04/18 00:02:37;;;;;;;;;;;8.70;99.90;;;;;;5103730;28;19920;-74
2023/04/18 00:05:04;;;;;;;;;;;8.70;99.90;;;;;;5105219;28;19995;-74
2023/04/18 00:07:29;;;;;;;;;;;8.60;99.90;;;;;;5088377;28;19920;-74
2023/04/18 00:09:55;;;;;;;;;;;8.60;99.90;;;;;;5089690;28;19927;-74
2023/04/18 00:12:20;;;;;;;;;;;8.50;99.90;;;;;;5070315;28;19924;-74
2023/04/18 00:14:49;;;;;;;;;;;8.50;99.90;;;;;;5089469;28;19970;-74
2023/04/18 00:17:14;;;;;;;;;;;8.50;99.90;;;;;;5088937;28;19920;-74
2023/04/18 00:19:40;;;;;;;;;;;8.40;99.90;;;;;;5071085;28;20364;-74
2023/04/18 00:22:06;;;;;;;;;;;8.40;99.90;;;;;;5069220;28;19935;-74
2023/04/18 00:24:31;;;;;;;;;;;8.40;99.90;;;;;;5087783;28;19931;-74
2023/04/18 00:26:57;;;;;;;;;;;8.40;99.90;;;;;;5068194;28;19920;-74
2023/04/18 00:29:22;;;;;;;;;;;8.40;99.90;;;;;;5069632;28;19920;-74
2023/04/18 00:31:48;;;;;;;;;;;8.30;99.90;;;;;;5074772;28;19920;-74
2023/04/18 00:34:13;;;;;;;;;;;8.30;99.90;;;;;;5086928;28;19998;-74
2023/04/18 00:36:39;;;;;;;;;;;8.30;99.90;;;;;;5067770;28;20425;-74
2023/04/18 00:39:05;;;;;;;;;;;8.30;99.90;;;;;;5085865;28;19920;-75
2023/04/18 00:41:31;;;;;;;;;;;8.20;99.90;;;;;;5084230;28;19927;-75
2023/04/18 00:43:56;;;;;;;;;;;8.20;99.90;;;;;;5084713;28;20671;-75
2023/04/18 00:46:22;;;;;;;;;;;8.20;99.90;;;;;;5065389;28;19920;-74
2023/04/18 00:48:48;;;;;;;;;;;8.10;99.90;;;;;;5077644;28;20314;-75
2023/04/18 00:51:14;;;;;;;;;;;8.10;99.90;;;;;;5043983;28;19920;-75
2023/04/18 00:53:40;;;;;;;;;;;8.10;99.90;;;;;;5038495;28;20588;-75
2023/04/18 00:56:06;;;;;;;;;;;8.10;99.90;;;;;;5051496;28;19969;-74
2023/04/18 00:58:32;;;;;;;;;;;8.00;99.90;;;;;;5069519;28;19924;-74
2023/04/18 01:00:57;;;;;;;;;;;8.00;99.90;;;;;;5051880;28;19989;-74
2023/04/18 01:03:24;;;;;;;;;;;8.00;99.90;;;;;;5069247;28;19921;-75
2023/04/18 01:05:50;;;;;;;;;;;8.00;99.90;;;;;;5069176;28;20397;-74
2023/04/18 01:08:16;;;;;;;;;;;7.90;99.90;;;;;;5051726;28;19959;-74
2023/04/18 01:10:42;;;;;;;;;;;7.90;99.90;;;;;;5034835;28;19920;-74
2023/04/18 01:13:08;;;;;;;;;;;7.90;99.90;;;;;;5104352;28;19920;-75
2023/04/18 01:15:35;;;;;;;;;;;7.90;99.90;;;;;;5069386;28;19927;-74
2023/04/18 01:18:02;;;;;;;;;;;7.80;99.90;;;;;;5045657;28;19992;-75
2023/04/18 01:20:27;;;;;;;;;;;7.80;99.90;;;;;;5087497;28;20003;-74
2023/04/18 01:22:53;;;;;;;;;;;7.80;99.90;;;;;;5076080;28;20003;-75
2023/04/18 01:25:19;;;;;;;;;;;7.80;99.90;;;;;;5087520;28;19927;-75
2023/04/18 01:27:45;;;;;;;;;;;7.80;99.90;;;;;;5104219;28;19967;-74
2023/04/18 01:30:10;;;;;;;;;;;7.80;99.90;;;;;;5087471;28;19924;-75
2023/04/18 01:32:36;;;;;;;;;;;7.80;99.90;;;;;;5091207;28;19920;-75
2023/04/18 01:35:01;;;;;;;;;;;7.80;99.90;;;;;;5073657;28;20316;-75
2023/04/18 01:37:27;;;;;;;;;;;7.80;99.90;;;;;;5092054;28;19938;-74
2023/04/18 01:39:52;;;;;;;;;;;7.80;99.90;;;;;;5092118;28;20289;-75
2023/04/18 01:42:18;;;;;;;;;;;7.80;99.90;;;;;;5091512;28;20393;-75
2023/04/18 01:44:43;;;;;;;;;;;7.80;99.90;;;;;;5091211;28;20819;-74
2023/04/18 01:47:09;;;;;;;;;;;7.80;99.90;;;;;;5088779;28;20050;-75
2023/04/18 01:49:35;;;;;;;;;;;7.80;99.90;;;;;;5091301;28;20011;-75
2023/04/18 01:52:00;;;;;;;;;;;7.80;99.90;;;;;;5077915;28;19921;-75
2023/04/18 01:54:26;;;;;;;;;;;7.80;99.90;;;;;;5071641;28;19966;-74
2023/04/18 01:56:51;;;;;;;;;;;7.80;99.90;;;;;;5070673;28;19946;-74
2023/04/18 01:59:17;;;;;;;;;;;7.80;99.90;;;;;;5083251;28;19926;-74
2023/04/18 02:01:42;;;;;;;;;;;7.90;99.90;;;;;;5070946;28;19920;-74
2023/04/18 02:04:08;;;;;;;;;;;7.90;99.90;;;;;;5085584;28;19960;-74
2023/04/18 02:06:33;;;;;;;;;;;8.00;99.90;;;;;;5089874;28;19919;-75
2023/04/18 02:08:59;;;;;;;;;;;8.00;99.90;;;;;;5067446;28;20281;-75
2023/04/18 02:11:25;;;;;;;;;;;8.00;99.90;;;;;;5059152;28;19926;-75
2023/04/18 02:13:51;;;;;;;;;;;8.00;99.90;;;;;;5069016;28;19920;-75
2023/04/18 02:16:16;;;;;;;;;;;8.00;99.90;;;;;;5068234;28;20026;-74
2023/04/18 02:18:42;;;;;;;;;;;8.00;99.90;;;;;;5068946;28;19963;-75
2023/04/18 02:21:09;;;;;;;;;;;8.00;99.90;;;;;;5050999;28;19998;-75
2023/04/18 02:23:35;;;;;;;;;;;8.00;99.90;;;;;;5085841;28;19924;-75
2023/04/18 02:26:00;;;;;;;;;;;8.00;99.90;;;;;;5084585;28;19931;-74
2023/04/18 02:28:26;;;;;;;;;;;8.10;99.90;;;;;;5071214;28;20372;-74
2023/04/18 02:30:51;;;;;;;;;;;8.10;99.90;;;;;;5082178;28;19919;-75
2023/04/18 02:33:17;;;;;;;;;;;8.00;99.90;;;;;;5087481;28;19923;-75
2023/04/18 02:35:42;;;;;;;;;;;8.00;99.90;;;;;;5088235;28;19920;-75
2023/04/18 02:38:08;;;;;;;;;;;8.10;99.90;;;;;;5087584;28;19949;-75
2023/04/18 02:40:33;;;;;;;;;;;8.10;99.90;;;;;;5088553;28;19924;-74
2023/04/18 02:43:00;;;;;;;;;;;8.10;99.90;;;;;;5069114;28;19981;-74
2023/04/18 02:45:26;;;;;;;;;;;8.10;99.90;;;;;;5087263;28;19927;-75
2023/04/18 02:47:51;;;;;;;;;;;8.10;99.90;;;;;;5085043;28;19919;-74
2023/04/18 02:50:17;;;;;;;;;;;8.10;99.90;;;;;;5087010;28;20393;-74
2023/04/18 02:52:42;;;;;;;;;;;8.00;99.90;;;;;;5070271;28;19921;-75
2023/04/18 02:55:08;;;;;;;;;;;8.10;99.90;;;;;;5049597;28;19923;-74
2023/04/18 02:57:34;;;;;;;;;;;8.00;99.90;;;;;;5086889;28;19928;-75
2023/04/18 02:59:59;;;;;;;;;;;8.00;99.90;;;;;;5096888;28;19920;-74
2023/04/18 03:02:25;;;;;;;;;;;8.00;99.90;;;;;;5075003;28;19926;-75
2023/04/18 03:04:50;;;;;;;;;;;8.00;99.90;;;;;;5070503;28;20011;-75
2023/04/18 03:07:16;;;;;;;;;;;8.00;99.90;;;;;;5085507;28;19970;-75
2023/04/18 03:09:41;;;;;;;;;;;8.00;99.90;;;;;;5088375;28;19927;-74
2023/04/18 03:12:07;;;;;;;;;;;8.00;99.90;;;;;;5085351;28;19920;-74
2023/04/18 03:14:32;;;;;;;;;;;8.00;99.90;;;;;;5088547;28;19920;-75
2023/04/18 03:16:58;;;;;;;;;;;8.00;99.90;;;;;;5084950;28;19966;-75
2023/04/18 03:19:23;;;;;;;;;;;8.00;99.90;;;;;;5088149;28;19943;-75
2023/04/18 03:21:49;;;;;;;;;;;8.00;99.90;;;;;;5082210;28;20358;-75
2023/04/18 03:24:14;;;;;;;;;;;8.00;99.90;;;;;;5102774;28;20404;-74
2023/04/18 03:26:40;;;;;;;;;;;8.00;99.90;;;;;;5097928;28;19924;-75
2023/04/18 03:29:06;;;;;;;;;;;8.00;99.90;;;;;;5068564;28;19931;-74
2023/04/18 03:31:32;;;;;;;;;;;8.00;99.90;;;;;;5081238;28;19960;-74
2023/04/18 03:33:57;;;;;;;;;;;8.00;99.90;;;;;;5085602;28;20331;-74
2023/04/18 03:36:24;;;;;;;;;;;8.00;99.90;;;;;;5062196;28;19927;-74
2023/04/18 03:38:49;;;;;;;;;;;8.00;99.90;;;;;;5068104;28;20008;-75
2023/04/18 03:41:15;;;;;;;;;;;8.00;99.90;;;;;;5096582;28;20285;-74
2023/04/18 03:43:40;;;;;;;;;;;8.00;99.90;;;;;;5101457;28;19924;-75
2023/04/18 03:46:06;;;;;;;;;;;8.00;99.90;;;;;;5063753;28;20439;-75
2023/04/18 03:48:34;;;;;;;;;;;8.00;99.90;;;;;;5068054;28;19920;-74
2023/04/18 03:51:00;;;;;;;;;;;8.00;99.90;;;;;;5081407;28;19921;-75
2023/04/18 03:53:25;;;;;;;;;;;8.00;99.90;;;;;;5086020;28;19920;-74
2023/04/18 03:55:51;;;;;;;;;;;8.00;99.90;;;;;;5063401;28;20007;-74
2023/04/18 03:58:16;;;;;;;;;;;8.00;99.90;;;;;;5086575;28;20404;-75
2023/04/18 04:00:42;;;;;;;;;;;8.00;99.90;;;;;;5061322;28;20409;-74
2023/04/18 04:03:07;;;;;;;;;;;8.00;99.90;;;;;;5080028;28;19924;-74
2023/04/18 04:05:33;;;;;;;;;;;8.00;99.90;;;;;;5097725;28;19920;-74
2023/04/18 04:07:58;;;;;;;;;;;8.00;99.90;;;;;;5079872;28;19920;-75
2023/04/18 04:10:24;;;;;;;;;;;8.00;99.90;;;;;;5085143;28;19928;-75
2023/04/18 04:12:50;;;;;;;;;;;8.00;99.90;;;;;;5087271;28;19928;-74
2023/04/18 04:15:15;;;;;;;;;;;8.00;99.90;;;;;;5066887;28;20047;-75
2023/04/18 04:17:41;;;;;;;;;;;8.00;99.90;;;;;;5069402;28;19969;-74
2023/04/18 04:20:07;;;;;;;;;;;8.00;99.90;;;;;;5099302;28;19928;-74
2023/04/18 04:22:33;;;;;;;;;;;8.00;99.90;;;;;;5069309;28;19920;-75
2023/04/18 04:24:59;;;;;;;;;;;8.00;99.90;;;;;;5083428;28;20335;-75
2023/04/18 04:27:25;;;;;;;;;;;8.00;99.90;;;;;;5086953;28;20050;-75
2023/04/18 04:29:51;;;;;;;;;;;8.00;99.90;;;;;;5083625;28;20007;-75
2023/04/18 04:32:17;;;;;;;;;;;8.00;99.90;;;;;;5086766;28;20467;-75
2023/04/18 04:34:43;;;;;;;;;;;8.00;99.90;;;;;;5083804;28;19920;-75
2023/04/18 04:37:08;;;;;;;;;;;8.00;99.90;;;;;;5086956;28;21027;-75
2023/04/18 04:39:34;;;;;;;;;;;8.00;99.90;;;;;;5065227;28;20011;-75
2023/04/18 04:42:03;;;;;;;;;;;8.00;99.90;;;;;;5068844;28;19970;-75
2023/04/18 04:44:30;;;;;;;;;;;8.00;99.90;;;;;;5065775;28;20285;-75
2023/04/18 04:46:55;;;;;;;;;;;7.90;99.90;;;;;;5068227;28;20343;-74
2023/04/18 04:49:21;;;;;;;;;;;7.90;99.90;;;;;;5086709;28;19924;-74
2023/04/18 04:51:47;;;;;;;;;;;8.00;99.90;;;;;;5068527;28;19955;-74
2023/04/18 04:54:12;;;;;;;;;;;8.00;99.90;;;;;;5083084;28;19924;-74
2023/04/18 04:56:38;;;;;;;;;;;8.00;99.90;;;;;;5086250;28;19920;-74
2023/04/18 04:59:03;;;;;;;;;;;8.00;99.90;;;;;;5064408;28;20385;-75
2023/04/18 05:01:29;;;;;;;;;;;8.00;99.90;;;;;;5058005;28;19921;-75
2023/04/18 05:03:54;;;;;;;;;;;8.00;99.90;;;;;;5081726;28;19920;-75
2023/04/18 05:06:21;;;;;;;;;;;8.10;99.90;;;;;;5089155;28;20005;-75
2023/04/18 05:08:47;;;;;;;;;;;8.10;99.90;;;;;;5087084;28;19974;-75
2023/04/18 05:11:12;;;;;;;;;;;8.00;99.90;;;;;;5090400;28;20469;-75
2023/04/18 05:13:38;;;;;;;;;;;8.10;99.90;;;;;;5067543;28;19943;-75
2023/04/18 05:16:03;;;;;;;;;;;8.10;99.90;;;;;;5089664;28;20364;-75
2023/04/18 05:18:29;;;;;;;;;;;8.10;99.90;;;;;;5085075;28;19920;-74
2023/04/18 05:20:55;;;;;;;;;;;8.10;99.90;;;;;;5071337;28;20277;-74
2023/04/18 05:23:21;;;;;;;;;;;8.10;99.90;;;;;;5084901;28;20408;-74
2023/04/18 05:25:46;;;;;;;;;;;8.20;99.90;;;;;;5088886;28;19920;-75
2023/04/18 05:28:12;;;;;;;;;;;8.10;99.90;;;;;;5082892;28;20027;-75
2023/04/18 05:30:38;;;;;;;;;;;8.10;99.90;;;;;;5069971;28;19923;-75
2023/04/18 05:33:04;;;;;;;;;;;8.20;99.90;;;;;;5081722;28;19920;-75
2023/04/18 05:35:30;;;;;;;;;;;8.10;99.90;;;;;;5069870;28;20400;-74
2023/04/18 05:37:56;;;;;;;;;;;8.10;99.90;;;;;;5082742;28;19924;-74
2023/04/18 05:40:22;;;;;;;;;;;8.20;99.90;;;;;;5069225;28;20305;-75
2023/04/18 05:42:47;;;;;;;;;;;8.10;99.90;;;;;;5064440;28;19924;-74
2023/04/18 05:45:13;;;;;;;;;;;8.10;99.90;;;;;;5086693;28;19995;-75
2023/04/18 05:47:38;;;;;;;;;;;8.10;99.90;;;;;;5081840;28;19924;-75
2023/04/18 05:50:04;;;;;;;;;;;8.10;99.90;;;;;;5067454;28;19973;-75
2023/04/18 05:52:30;;;;;;;;;;;8.10;99.90;;;;;;5080909;28;19928;-75
2023/04/18 05:54:56;;;;;;;;;;;8.10;99.90;;;;;;5067022;28;19920;-74
2023/04/18 05:57:21;;;;;;;;;;;8.10;99.90;;;;;;5096313;28;19927;-75
2023/04/18 05:59:47;;;;;;;;;;;8.10;99.90;;;;;;5070897;28;19920;-74
2023/04/18 06:02:12;;;;;;;;;;;8.10;99.90;;;;;;5073787;28;19924;-74
2023/04/18 06:04:39;;;;;;;;;;;8.10;99.90;;;;;;5071534;28;19924;-75
2023/04/18 06:07:05;;;;;;;;;;;8.10;99.90;;;;;;5085102;28;19971;-75
2023/04/18 06:09:31;;;;;;;;;;;8.10;99.90;;;;;;5088998;28;19967;-75
2023/04/18 06:11:57;;;;;;;;;;;8.10;99.90;;;;;;5101601;28;19924;-75
2023/04/18 06:14:22;;;;;;;;;;;8.20;99.90;;;;;;5070856;28;19920;-74
2023/04/18 06:16:48;;;;;;;;;;;8.20;99.90;;;;;;5084579;28;19920;-74
2023/04/18 06:19:13;;;;;;;;;;;8.20;99.90;;;;;;5080378;28;19927;-75
2023/04/18 06:21:41;;;;;;;;;;;8.20;99.90;;;;;;5084750;28;19920;-75
2023/04/18 06:24:07;;;;;;;;;;;8.20;99.90;;;;;;5105210;28;20493;-74
2023/04/18 06:26:33;;;;;;;;;;;8.20;99.90;;;;;;5065373;28;19946;-74
2023/04/18 06:28:58;;;;;;;;;;;8.20;99.90;;;;;;5053639;28;19921;-74
2023/04/18 06:31:24;;;;;;;;;;;8.20;99.90;;;;;;5086446;28;19920;-77
2023/04/18 06:33:49;;;;;;;;;;;8.30;99.90;;;;;;5073989;28;20441;-76
2023/04/18 06:36:15;;;;;;;;;;;8.30;99.90;;;;;;5074255;28;19928;-76
2023/04/18 06:38:40;;;;;;;;;;;8.30;99.90;;;;;;5073655;28;19920;-75
2023/04/18 06:41:06;;;;;;;;;;;8.30;99.90;;;;;;5072671;28;19935;-76
2023/04/18 06:43:32;;;;;;;;;;;8.40;99.90;;;;;;5070372;28;19927;-75
2023/04/18 06:45:58;;;;;;;;;;;8.40;99.90;;;;;;5056455;28;19924;-76
2023/04/18 06:48:23;;;;;;;;;;;8.40;99.90;;;;;;5055835;28;19924;-76
2023/04/18 06:50:52;;;;;;;;;;;8.50;99.90;;;;;;5073345;28;19920;-76
2023/04/18 06:53:17;;;;;;;;;;;8.60;99.90;;;;;;5074658;28;19920;-74
2023/04/18 06:55:43;;;;;;;;;;;8.60;99.90;;;;;;5073381;28;19927;-74
2023/04/18 06:58:09;;;;;;;;;;;8.60;99.90;;;;;;5072909;28;19920;-75
2023/04/18 07:00:34;;;;;;;;;;;8.70;99.90;;;;;;5055065;28;20022;-74
2023/04/18 07:03:01;;;;;;;;;;;8.70;99.90;;;;;;5079281;28;20317;-77
2023/04/18 07:05:27;;;;;;;;;;;8.80;99.90;;;;;;5081472;28;20424;-73
2023/04/18 07:07:52;;;;;;;;;;;8.80;99.90;;;;;;5087767;28;19924;-72
2023/04/18 07:10:18;;;;;;;;;;;8.90;99.90;;;;;;5098281;28;19927;-72
2023/04/18 07:12:43;;;;;;;;;;;8.90;99.90;;;;;;5102256;28;19920;-72
2023/04/18 07:15:09;;;;;;;;;;;9.00;99.90;;;;;;5098208;28;19928;-72
2023/04/18 07:17:35;;;;;;;;;;;9.00;99.90;;;;;;5086971;28;19989;-73
2023/04/18 07:20:01;;;;;;;;;;;9.00;99.90;;;;;;5063836;28;20397;-73
2023/04/18 07:22:26;;;;;;;;;;;9.10;99.90;;;;;;5086700;28;19920;-73
2023/04/18 07:24:52;;;;;;;;;;;9.10;99.90;;;;;;5081682;28;20479;-73
2023/04/18 07:27:17;;;;;;;;;;;9.10;99.90;;;;;;5068368;28;20458;-73
2023/04/18 07:29:43;;;;;;;;;;;9.20;99.90;;;;;;5076598;28;19927;-72
2023/04/18 07:32:09;;;;;;;;;;;9.30;99.90;;;;;;5079590;28;19920;-73
2023/04/18 07:34:36;;;;;;;;;;;9.30;99.90;;;;;;5075772;28;20042;-75
2023/04/18 07:37:02;;;;;;;;;;;9.40;99.90;;;;;;5086780;28;19999;-73
2023/04/18 07:39:27;;;;;;;;;;;9.40;99.90;;;;;;5072010;28;19925;-73
2023/04/18 07:41:53;;;;;;;;;;;9.50;99.90;;;;;;5077458;28;19959;-73
2023/04/18 07:44:20;;;;;;;;;;;9.60;99.90;;;;;;5072081;28;20003;-73
2023/04/18 07:46:45;;;;;;;;;;;9.60;99.90;;;;;;5080628;28;20690;-73
2023/04/18 07:49:11;;;;;;;;;;;9.70;99.90;;;;;;5070938;28;19993;-73
2023/04/18 07:51:36;;;;;;;;;;;9.80;99.90;;;;;;5084540;28;19961;-73
2023/04/18 07:54:02;;;;;;;;;;;9.80;99.90;;;;;;5070607;28;19928;-73
2023/04/18 07:56:27;;;;;;;;;;;9.90;99.90;;;;;;5084110;28;20385;-73
2023/04/18 07:58:53;;;;;;;;;;;9.90;99.90;;;;;;5074812;28;20015;-73
2023/04/18 08:01:22;;;;;;;;;;;10.00;99.90;;;;;;5058831;28;19921;-73
2023/04/18 08:03:48;;;;;;;;;;;10.10;99.90;;;;;;5055813;28;19935;-73
2023/04/18 08:06:15;;;;;;;;;;;10.20;99.90;;;;;;5069479;28;19924;-73
2023/04/18 08:08:41;;;;;;;;;;;10.20;99.90;;;;;;5056151;28;19973;-74
2023/04/18 08:11:07;;;;;;;;;;;10.30;99.90;;;;;;5067251;28;19924;-73
2023/04/18 08:13:32;;;;;;;;;;;10.30;99.90;;;;;;5081060;28;20382;-73
2023/04/18 08:15:58;;;;;;;;;;;10.40;99.90;;;;;;5072183;28;20011;-73
2023/04/18 08:18:24;;;;;;;;;;;10.40;99.90;;;;;;5068705;28;19920;-73
2023/04/18 08:20:50;;;;;;;;;;;10.50;99.90;;;;;;5068871;28;19960;-72
2023/04/18 08:23:15;;;;;;;;;;;10.60;99.90;;;;;;5069152;28;19938;-73
2023/04/18 08:25:41;;;;;;;;;;;10.70;99.90;;;;;;5071667;28;19924;-72
2023/04/18 08:28:07;;;;;;;;;;;10.70;99.90;;;;;;5068518;28;19924;-73
2023/04/18 08:30:33;;;;;;;;;;;10.80;99.90;;;;;;5051919;28;19954;-73
2023/04/18 08:32:59;;;;;;;;;;;10.90;99.90;;;;;;5069834;28;20336;-73
2023/04/18 08:35:24;;;;;;;;;;;10.90;99.90;;;;;;5064167;28;20937;-73
2023/04/18 08:37:50;;;;;;;;;;;11.00;99.90;;;;;;5072734;28;19924;-73
2023/04/18 08:40:15;;;;;;;;;;;11.00;99.90;;;;;;5080183;28;19920;-73
2023/04/18 08:42:42;;;;;;;;;;;11.00;99.90;;;;;;5044906;28;19926;-73
2023/04/18 08:45:08;;;;;;;;;;;11.10;99.90;;;;;;5069027;28;20396;-73
2023/04/18 08:47:34;;;;;;;;;;;11.20;99.90;;;;;;5070475;28;19920;-73
2023/04/18 08:49:59;;;;;;;;;;;11.30;99.90;;;;;;5085526;28;19927;-73
2023/04/18 08:52:26;;;;;;;;;;;11.40;99.90;;;;;;5061877;28;19927;-72
2023/04/18 08:54:52;;;;;;;;;;;11.40;99.90;;;;;;5076198;28;19923;-73
2023/04/18 08:57:25;;;;;;;;;;;11.50;99.90;;;;;;5079290;28;19920;-73
2023/04/18 08:59:52;;;;;;;;;;;11.60;99.90;;;;;;5050462;28;19924;-73
2023/04/18 09:02:20;;;;;;;;;;;11.70;99.90;;;;;;5072374;28;19921;-72
2023/04/18 09:04:51;;;;;;;;;;;11.80;99.90;;;;;;5068120;28;20292;-73
2023/04/18 09:07:25;;;;;;;;;;;11.80;99.90;;;;;;5084088;28;19920;-73
2023/04/18 09:09:52;;;;;;;;;;;11.90;99.90;;;;;;5067691;28;19934;-73
2023/04/18 09:12:21;;;;;;;;;;;12.00;99.90;;;;;;5067022;28;20271;-73
2023/04/18 09:14:50;;;;;;;;;;;12.10;99.90;;;;;;5085758;28;20420;-73
2023/04/18 09:17:32;;;;;;;;;;;12.20;99.90;;;;;;5066983;28;20061;-73
2023/04/18 09:19:58;;;;;;;;;;;12.30;99.90;;;;;;5082584;28;19935;-73
2023/04/18 09:22:25;;;;;;;;;;;12.40;99.90;;;;;;5086417;28;20007;-73
2023/04/18 09:24:56;;;;;;;;;;;12.90;99.90;;;;;;5083038;28;19932;-73
2023/04/18 09:27:22;;;;;;;;;;;13.60;99.90;;;;;;5086126;28;19928;-73
2023/04/18 09:29:50;;;;;;;;;;;14.20;99.90;;;;;;5080313;28;20301;-73
2023/04/18 09:32:28;;;;;;;;;;;14.60;99.90;;;;;;5043052;28;19967;-73
2023/04/18 09:34:56;;;;;;;;;;;14.90;99.90;;;;;;5064955;28;19959;-73
2023/04/18 09:37:22;;;;;;;;;;;15.30;99.90;;;;;;5085084;28;20305;-73
2023/04/18 09:39:49;;;;;;;;;;;15.60;98.10;;;;;;5063208;28;20399;-73
2023/04/18 09:42:15;;;;;;;;;;;15.90;99.10;;;;;;5067880;28;19927;-73
2023/04/18 09:45:00;;;;;;;9.60;3.83;;;16.20;96.00;;;;;;5066310;28;19920;-71
2023/04/18 09:47:26;;;;;;;6.18;4.00;;;16.20;94.10;;;;;;5081971;28;20486;-71
2023/04/18 09:49:52;;;;;;;6.82;4.10;;;16.30;94.10;;;;;;5085166;28;20475;-71
2023/04/18 09:52:20;;;;;;;6.57;4.03;;;16.30;93.90;;;;;;5082774;28;20499;-73
2023/04/18 09:54:47;;;;;;;7.20;4.38;;;16.30;94.00;;;;;;5088325;28;20434;-73
2023/04/18 09:57:14;;;;;;;6.20;4.20;;;16.30;93.30;;;;;;5100430;28;20808;-73
2023/04/18 10:00:06;;;;;;;8.82;4.55;;;16.40;92.80;;;;;;5087808;28;20958;-71
2023/04/18 10:02:38;;;;;;;6.63;4.13;;;16.60;94.60;;;;;;5072524;28;20402;-73
2023/04/18 10:05:07;;;;;;;6.03;4.20;;;17.00;93.70;;;;;;5075772;28;20985;-73
2023/04/18 10:07:33;;;;;;;6.40;4.20;;;17.10;93.90;;;;;;5085624;28;20800;-73
2023/04/18 10:09:59;;;;;;;8.98;4.32;;;17.30;94.90;;;;;;5052689;28;20424;-73
2023/04/18 10:12:25;;;;;;;;;;;17.50;92.60;;;;;;5079687;28;20105;-73
2023/04/18 10:14:50;;;;;;;;;;;17.40;90.80;;;;;;5103519;28;19935;-72
2023/04/18 10:17:16;;;;;;;;;;;17.40;92.50;;;;;;5080222;28;20003;-72
2023/04/18 10:19:43;;;;;;;;;;;17.40;90.20;;;;;;5072699;28;19920;-73
2023/04/18 10:22:10;;;;;;;;;;;17.30;91.00;;;;;;5079313;28;20345;-73
2023/04/18 10:24:55;;;;;;;;;;;17.50;90.80;;;;;;5085944;28;19920;-73
2023/04/18 10:27:49;;;;;;;5.13;3.00;;;17.70;90.90;;;;;;5068144;28;20290;-73
2023/04/18 10:30:15;;;;;;;5.38;3.40;;;17.80;88.40;;;;;;5049280;28;20511;-73
2023/04/18 10:32:41;;;;;;;7.50;3.73;;;17.90;87.20;;;;;;5063704;28;20423;-73
2023/04/18 10:35:07;;;;;;;4.45;3.13;;;18.00;90.70;;;;;;5072332;28;21183;-73
2023/04/18 10:37:47;;;;;;;6.07;3.60;;;18.20;88.30;;;;;;5053224;28;20404;-71
2023/04/18 10:40:14;;;;;;;5.72;3.40;;;18.40;89.00;;;;;;5070851;28;20411;-71
2023/04/18 10:42:45;;;;;;;5.65;3.38;;;18.50;85.50;;;;;;5070614;28;20568;-71
2023/04/18 10:45:18;;;;;;;6.17;3.30;;;18.60;89.90;;;;;;5064916;28;20403;-71
2023/04/18 10:47:44;;;;;;;6.38;3.65;;;18.70;87.60;;;;;;5086261;28;20430;-71
2023/04/18 10:50:10;;;;;;;5.45;3.20;;;18.80;90.00;;;;;;5088510;28;20404;-71
2023/04/18 10:52:36;;;;;;;;;;;18.80;82.80;;;;;;5074955;28;20598;-71
2023/04/18 10:55:05;;;;;;;;;;;18.70;85.80;;;;;;5053637;28;19924;-72
2023/04/18 10:57:37;;;;;;;;;;;18.60;85.10;;;;;;5054486;28;20011;-72
2023/04/18 11:00:04;;;;;;;;;;;18.60;84.80;;;;;;5069810;28;19921;-72
2023/04/18 11:02:32;;;;;;;7.47;2.90;;;18.70;85.70;;;;;;5071940;28;19927;-72
2023/04/18 11:05:03;;;;;;;4.27;2.73;;;18.80;82.70;;;;;;5070872;28;20400;-72
2023/04/18 11:07:47;;;;;;;4.60;2.78;;;18.90;86.70;;;;;;5066800;28;20428;-71
2023/04/18 11:10:23;;;;;;;4.07;2.30;;;19.00;83.30;;;;;;5058974;28;20414;-73
2023/04/18 11:12:49;;;;;;;5.55;2.42;;;19.00;84.90;;;;;;5078402;28;20931;-72
2023/04/18 11:15:20;;;;;;;4.88;2.67;;;19.30;85.20;;;;;;5073525;28;20494;-71
2023/04/18 11:17:59;;;;;;;5.75;2.65;;;19.30;80.60;;;;;;5072634;28;20488;-72
2023/04/18 11:20:25;;;;;;;6.57;2.90;;;19.30;82.90;;;;;;5074593;28;20430;-72
2023/04/18 11:22:56;;;;;;;4.75;2.20;;;19.30;80.90;;;;;;5090415;28;20431;-72
2023/04/18 11:25:30;;;;;;;4.23;2.20;;;19.40;82.30;;;;;;5055563;28;20425;-72
2023/04/18 11:28:01;;;;;;;3.92;2.20;;;19.40;81.50;;;;;;5052836;28;20447;-73
2023/04/18 11:30:34;;;;;;;3.35;1.90;;;19.40;79.40;;;;;;5081452;28;20040;-73
2023/04/18 11:33:03;;;;;;;;;;;19.40;81.10;;;;;;5075902;28;20052;-73
2023/04/18 11:35:29;;;;;;;5.00;2.13;;;19.50;77.00;;;;;;5084241;28;19920;-73
2023/04/18 11:37:54;;;;;;;;;;;19.70;79.10;;;;;;5081859;28;20048;-73
2023/04/18 11:40:20;;;;;;;5.32;2.50;;;19.60;78.50;;;;;;5068403;28;19932;-73
2023/04/18 11:42:46;;;;;;;3.87;2.00;;;19.50;76.90;;;;;;5081486;28;20476;-73
2023/04/18 11:45:13;;;;;;;7.43;2.20;;;19.60;80.40;;;;;;5075822;28;20428;-73
2023/04/18 11:47:40;;;;;;;4.80;2.20;;;19.50;76.60;;;;;;5059390;28;20449;-73
2023/04/18 11:50:08;;;;;;;9.10;2.67;;;19.10;77.20;;;;;;5075751;28;20431;-72
2023/04/18 11:52:35;;;;;;;5.75;2.42;;;18.90;75.00;;;;;;5051080;28;20506;-73
2023/04/18 11:55:16;;;;;;;4.05;1.95;;;19.00;76.40;;;;;;5074670;28;20493;-72
2023/04/18 11:57:51;;;;;;;3.95;1.83;;;19.00;76.60;;;;;;5081612;28;20468;-72
2023/04/18 12:00:20;;;;;;;4.82;1.92;;;18.80;75.80;;;;;;5054131;28;20416;-71
2023/04/18 12:02:48;;;;;;;3.85;1.80;;;18.90;76.60;;;;;;5074022;28;20424;-72
2023/04/18 12:05:42;;;;;;;4.15;2.00;;;19.30;78.80;;;;;;5070404;28;20460;-72
2023/04/18 12:08:18;;;;;;;17.93;2.80;;;19.60;76.40;;;;;;5054975;28;20419;-71
2023/04/18 12:10:50;;;;;;;;;;;20.00;74.60;;;;;;5074692;28;20075;-72
2023/04/18 12:13:16;;;;;;;;;;;20.30;75.70;;;;;;5076856;28;19935;-72
2023/04/18 12:15:43;;;;;;;;;;;20.30;76.00;;;;;;5065894;28;20998;-72
2023/04/18 12:18:10;;;;;;;;;;;20.10;74.80;;;;;;5070127;28;20457;-72
2023/04/18 12:20:37;;;;;;;;;;;19.80;74.70;;;;;;5060627;28;19927;-72
2023/04/18 12:23:03;;;;;;;;;;;19.80;74.70;;;;;;5051441;28;20034;-72
2023/04/18 12:25:29;;;;;;;;;;;19.60;72.30;;;;;;5074507;28;20019;-72
2023/04/18 12:27:58;;;;;;;;;;;19.20;75.20;;;;;;5066114;28;19921;-72
2023/04/18 12:30:25;;;;;;;;;;;19.10;74.30;;;;;;5092861;28;20010;-72
2023/04/18 12:32:55;;;;;;;;;;;19.10;74.50;;;;;;5068583;28;19924;-73
2023/04/18 12:35:23;;;;;;;;;;;19.00;74.20;;;;;;5068863;28;20546;-72
2023/04/18 12:37:50;;;;;;;;;;;19.10;73.60;;;;;;5067132;28;19924;-74
2023/04/18 12:40:20;;;;;;;;;;;18.90;75.20;;;;;;5068280;28;20639;-72
2023/04/18 12:42:46;;;;;;;;;;;18.80;72.50;;;;;;5067992;28;19925;-73
2023/04/18 12:45:12;;;;;;;;;;;18.50;72.30;;;;;;5068542;28;19931;-73
2023/04/18 12:47:42;;;;;;;;;;;18.10;74.20;;;;;;5088216;28;20547;-73
2023/04/18 12:50:09;;;;;;;;;;;17.90;75.30;;;;;;5062529;28;19924;-74
2023/04/18 12:52:36;;;;;;;;;;;17.60;74.70;;;;;;5042126;28;19925;-71
2023/04/18 12:55:02;;;;;;;;;;;17.50;75.60;;;;;;5096101;28;20735;-72
2023/04/18 12:57:28;;;;;;;;;;;17.60;77.00;;;;;;5087101;28;19959;-74
2023/04/18 12:59:53;;;;;;;;;;;18.20;77.50;;;;;;5081042;28;20301;-74
2023/04/18 13:02:19;;;;;;;;;;;18.60;76.20;;;;;;5050934;28;19964;-72
2023/04/18 13:04:45;;;;;;;;;;;18.50;74.80;;;;;;5068546;28;20044;-73
2023/04/18 13:07:10;;;;;;;;;;;18.10;76.70;;;;;;5068091;28;20306;-73
2023/04/18 13:09:36;;;;;;;;;;;17.80;76.10;;;;;;5067255;28;19963;-73
2023/04/18 13:12:02;;;;;;;;;;;17.60;77.30;;;;;;5058164;28;20014;-72
2023/04/18 13:14:28;;;;;;;;;;;17.50;77.90;;;;;;5068118;28;20294;-71
2023/04/18 13:16:53;;;;;;;;;;;17.50;79.50;;;;;;5074725;28;19924;-71
2023/04/18 13:19:19;;;;;;;;;;;17.50;78.10;;;;;;5075727;28;20005;-71
2023/04/18 13:21:44;;;;;;;;;;;17.50;78.50;;;;;;5051919;28;19995;-71
2023/04/18 13:24:10;;;;;;;;;;;17.50;78.20;;;;;;5067128;28;20643;-71
2023/04/18 13:26:36;;;;;;;;;;;17.40;78.40;;;;;;5052865;28;19957;-71
2023/04/18 13:29:03;;;;;;;;;;;17.30;79.30;;;;;;5055546;28;20378;-71
2023/04/18 13:31:28;;;;;;;;;;;17.20;79.50;;;;;;5072812;28;19932;-71
2023/04/18 13:33:54;;;;;;;;;;;17.30;81.90;;;;;;5072914;28;19928;-72
2023/04/18 13:36:20;;;;;;;;;;;17.60;79.60;;;;;;5071086;28;19929;-71
2023/04/18 13:38:45;;;;;;;;;;;17.60;78.80;;;;;;5072946;28;19947;-71
2023/04/18 13:41:11;;;;;;;;;;;18.20;80.50;;;;;;5072596;28;19924;-72
2023/04/18 13:43:36;;;;;;;;;;;18.80;78.70;;;;;;5054466;28;19932;-71
2023/04/18 13:46:02;;;;;;;;;;;19.20;76.90;;;;;;5072421;28;19924;-71
2023/04/18 13:48:27;;;;;;;;;;;19.30;75.90;;;;;;5081033;28;19931;-71
2023/04/18 13:50:53;;;;;;;;;;;19.50;74.30;;;;;;5106837;28;19924;-71
2023/04/18 13:53:19;;;;;;;;;;;19.50;76.60;;;;;;5107983;28;19967;-71
2023/04/18 13:55:45;;;;;;;;;;;19.90;76.90;;;;;;5056494;28;20382;-71
2023/04/18 13:58:11;;;;;;;;;;;19.70;74.80;;;;;;5092057;28;20026;-71
2023/04/18 14:00:36;;;;;;;;;;;19.90;77.40;;;;;;5078227;28;19929;-71
2023/04/18 14:03:02;;;;;;;;;;;20.40;75.00;;;;;;5091286;28;19934;-71
2023/04/18 14:05:27;;;;;;;;;;;20.10;75.20;;;;;;5099297;28;20010;-71
2023/04/18 14:07:53;;;;;;;;;;;20.00;74.10;;;;;;5083809;28;19924;-71